createdAt,value
2023-05-16T00:00:48.223Z,100.00
2023-05-16T00:03:15.481Z,100.00
2023-05-16T00:05:42.315Z,100.00
2023-05-16T00:08:08.822Z,100.00
2023-05-16T00:10:35.740Z,100.00
2023-05-16T00:13:02.933Z,100.00
2023-05-16T00:15:32.331Z,100.00
2023-05-16T00:17:59.434Z,100.00
2023-05-16T00:20:28.289Z,100.00
2023-05-16T00:22:55.578Z,100.00
2023-05-16T00:25:22.960Z,100.00
2023-05-16T00:27:49.568Z,100.00
2023-05-16T00:30:16.289Z,100.00
2023-05-16T00:32:44.106Z,100.00
2023-05-16T00:35:11.732Z,100.00
2023-05-16T00:37:39.015Z,100.00
2023-05-16T00:40:05.949Z,100.00
2023-05-16T00:42:32.696Z,100.00
2023-05-16T00:44:59.339Z,100.00
2023-05-16T00:47:26.130Z,100.00
2023-05-16T00:49:53.016Z,100.00
2023-05-16T00:52:21.400Z,100.00
2023-05-16T00:54:48.152Z,100.00
2023-05-16T00:57:16.302Z,100.00
2023-05-16T00:59:44.449Z,100.00
2023-05-16T01:02:11.226Z,100.00
2023-05-16T01:04:38.678Z,100.00
2023-05-16T01:07:05.321Z,100.00
2023-05-16T01:09:34.653Z,100.00
2023-05-16T01:12:33.068Z,100.00
2023-05-16T01:15:10.804Z,100.00
2023-05-16T01:17:56.249Z,100.00
2023-05-16T01:20:30.176Z,100.00
2023-05-16T01:23:04.989Z,100.00
2023-05-16T01:25:36.594Z,100.00
2023-05-16T01:28:03.418Z,100.00
2023-05-16T01:30:33.663Z,100.00
2023-05-16T01:33:01.401Z,100.00
2023-05-16T01:35:28.706Z,100.00
2023-05-16T01:38:11.466Z,100.00
2023-05-16T01:40:56.980Z,100.00
2023-05-16T01:43:34.689Z,100.00
2023-05-16T01:46:12.563Z,100.00
2023-05-16T01:48:59.453Z,100.00
2023-05-16T01:51:28.266Z,100.00
2023-05-16T01:53:58.798Z,100.00
2023-05-16T01:56:26.763Z,100.00
2023-05-16T01:58:53.881Z,100.00
2023-05-16T02:01:20.722Z,100.00
2023-05-16T02:03:47.540Z,100.00
2023-05-16T02:06:14.253Z,100.00
2023-05-16T02:08:40.781Z,100.00
2023-05-16T02:11:07.287Z,100.00
2023-05-16T02:13:33.895Z,100.00
2023-05-16T02:16:04.229Z,100.00
2023-05-16T02:18:30.822Z,100.00
2023-05-16T02:20:57.452Z,100.00
2023-05-16T02:23:24.077Z,100.00
2023-05-16T02:25:50.583Z,100.00
2023-05-16T02:28:17.190Z,100.00
2023-05-16T02:30:43.762Z,100.00
2023-05-16T02:33:11.088Z,100.00
2023-05-16T02:35:37.659Z,100.00
2023-05-16T02:38:04.291Z,100.00
2023-05-16T02:40:31.127Z,100.00
2023-05-16T02:42:57.669Z,100.00
2023-05-16T02:45:24.296Z,100.00
2023-05-16T02:47:51.024Z,100.00
2023-05-16T02:50:18.556Z,100.00
2023-05-16T02:52:45.101Z,100.00
2023-05-16T02:57:42.129Z,100.00
2023-05-16T03:00:12.831Z,100.00
2023-05-16T03:02:39.470Z,100.00
2023-05-16T03:05:07.809Z,100.00
2023-05-16T03:07:34.334Z,100.00
2023-05-16T03:10:01.141Z,100.00
2023-05-16T03:12:27.650Z,100.00
2023-05-16T03:14:54.597Z,100.00
2023-05-16T03:17:21.393Z,100.00
2023-05-16T03:19:48.071Z,100.00
2023-05-16T03:22:14.713Z,100.00
2023-05-16T03:24:42.823Z,100.00
2023-05-16T03:27:11.990Z,100.00
2023-05-16T03:29:38.586Z,100.00
2023-05-16T03:32:05.329Z,100.00
2023-05-16T03:34:32.121Z,100.00
2023-05-16T03:36:59.004Z,100.00
2023-05-16T03:39:25.560Z,100.00
2023-05-16T03:41:52.353Z,100.00
2023-05-16T03:44:18.849Z,100.00
2023-05-16T03:46:45.831Z,100.00
2023-05-16T03:49:12.358Z,100.00
2023-05-16T03:51:38.916Z,100.00
2023-05-16T03:54:06.074Z,100.00
2023-05-16T03:56:32.733Z,100.00
2023-05-16T03:58:59.262Z,100.00
2023-05-16T04:01:25.958Z,100.00
2023-05-16T04:03:52.491Z,100.00
2023-05-16T04:06:19.209Z,100.00
2023-05-16T04:08:45.797Z,100.00
2023-05-16T04:11:12.347Z,100.00
2023-05-16T04:13:39.055Z,100.00
2023-05-16T04:16:06.076Z,100.00
2023-05-16T04:18:32.609Z,100.00
2023-05-16T04:20:59.414Z,100.00
2023-05-16T04:23:26.146Z,100.00
2023-05-16T04:25:53.037Z,100.00
2023-05-16T04:28:19.544Z,100.00
2023-05-16T04:30:46.589Z,100.00
2023-05-16T04:33:13.225Z,100.00
2023-05-16T04:35:40.031Z,100.00
2023-05-16T04:38:06.696Z,100.00
2023-05-16T04:40:33.244Z,100.00
2023-05-16T04:42:59.803Z,100.00
2023-05-16T04:45:26.672Z,100.00
2023-05-16T04:47:53.800Z,100.00
2023-05-16T04:50:20.599Z,100.00
2023-05-16T04:52:47.138Z,100.00
2023-05-16T04:55:13.688Z,100.00
2023-05-16T04:57:40.394Z,99.46
2023-05-16T05:00:11.956Z,97.95
2023-05-16T05:02:38.679Z,95.53
2023-05-16T05:05:05.783Z,93.33
2023-05-16T05:07:32.885Z,88.43
2023-05-16T05:09:59.454Z,86.47
2023-05-16T05:12:27.855Z,86.94
2023-05-16T05:14:54.591Z,87.62
2023-05-16T05:17:21.990Z,87.22
2023-05-16T05:19:48.689Z,86.09
2023-05-16T05:22:15.830Z,84.12
2023-05-16T05:24:42.365Z,82.01
2023-05-16T05:27:08.954Z,80.48
2023-05-16T05:29:35.623Z,79.53
2023-05-16T05:32:02.352Z,77.64
2023-05-16T05:34:28.978Z,78.74
2023-05-16T05:36:55.744Z,78.98
2023-05-16T05:39:22.400Z,78.48
2023-05-16T05:41:49.203Z,79.20
2023-05-16T05:44:15.744Z,78.47
2023-05-16T05:46:42.752Z,76.42
2023-05-16T05:49:09.406Z,74.58
2023-05-16T05:51:36.267Z,73.16
2023-05-16T05:54:03.035Z,71.59
2023-05-16T05:56:29.599Z,69.78
2023-05-16T05:58:56.129Z,70.71
2023-05-16T06:01:22.732Z,71.65
2023-05-16T06:03:49.495Z,72.57
2023-05-16T06:06:16.164Z,72.85
2023-05-16T06:08:42.730Z,72.96
2023-05-16T06:11:09.331Z,73.61
2023-05-16T06:13:36.335Z,72.91
2023-05-16T06:16:03.028Z,73.75
2023-05-16T06:18:29.939Z,75.47
2023-05-16T06:20:56.495Z,76.95
2023-05-16T06:23:23.108Z,78.51
2023-05-16T06:25:51.060Z,77.67
2023-05-16T06:28:17.602Z,79.20
2023-05-16T06:30:44.398Z,77.45
2023-05-16T06:33:10.984Z,77.03
2023-05-16T06:35:37.520Z,77.94
2023-05-16T06:38:04.035Z,78.95
2023-05-16T06:40:30.749Z,78.85
2023-05-16T06:42:58.509Z,77.61
2023-05-16T06:45:25.312Z,77.03
2023-05-16T06:47:52.784Z,75.21
2023-05-16T06:50:20.887Z,74.27
2023-05-16T06:52:47.451Z,73.25
2023-05-16T06:55:14.045Z,73.00
2023-05-16T06:57:40.803Z,73.42
2023-05-16T07:00:08.443Z,72.40
2023-05-16T07:02:35.518Z,73.01
2023-05-16T07:05:02.171Z,71.98
2023-05-16T07:07:29.199Z,73.31
2023-05-16T07:09:55.857Z,71.53
2023-05-16T07:12:22.499Z,72.38
2023-05-16T07:14:49.068Z,70.32
2023-05-16T07:17:16.376Z,70.13
2023-05-16T07:19:43.021Z,71.22
2023-05-16T07:22:09.618Z,70.82
2023-05-16T07:24:36.402Z,71.27
2023-05-16T07:27:03.022Z,72.64
2023-05-16T07:29:30.555Z,75.13
2023-05-16T07:31:57.395Z,74.36
2023-05-16T07:34:24.035Z,74.18
2023-05-16T07:36:50.653Z,74.72
2023-05-16T07:39:17.288Z,75.32
2023-05-16T07:41:43.910Z,75.99
2023-05-16T07:44:10.471Z,76.13
2023-05-16T07:46:37.971Z,76.20
2023-05-16T07:49:04.925Z,77.39
2023-05-16T07:51:32.038Z,77.79
2023-05-16T07:53:58.562Z,78.96
2023-05-16T07:56:25.172Z,80.03
2023-05-16T07:58:51.909Z,80.74
2023-05-16T08:01:18.507Z,80.17
2023-05-16T08:03:45.292Z,79.87
2023-05-16T08:06:12.150Z,80.29
2023-05-16T08:08:38.832Z,81.36
2023-05-16T08:11:05.818Z,81.71
2023-05-16T08:13:32.468Z,82.89
2023-05-16T08:15:59.060Z,83.11
2023-05-16T08:18:25.844Z,84.61
2023-05-16T08:20:52.460Z,85.50
2023-05-16T08:23:19.039Z,87.10
2023-05-16T08:25:45.633Z,88.68
2023-05-16T08:28:12.246Z,90.78
2023-05-16T08:30:41.056Z,93.11
2023-05-16T08:33:10.460Z,95.62
2023-05-16T08:35:37.240Z,95.52
2023-05-16T08:38:03.785Z,95.78
2023-05-16T08:40:31.523Z,98.24
2023-05-16T08:42:58.309Z,98.38
2023-05-16T08:45:26.184Z,99.90
2023-05-16T08:47:55.243Z,99.22
2023-05-16T08:50:22.084Z,100.00
2023-05-16T08:52:51.192Z,100.00
2023-05-16T08:55:19.336Z,99.89
2023-05-16T08:57:46.482Z,99.72
2023-05-16T09:00:13.967Z,100.00
2023-05-16T09:02:41.749Z,98.24
2023-05-16T09:05:09.212Z,98.48
2023-05-16T09:07:35.927Z,98.08
2023-05-16T09:10:02.500Z,94.99
2023-05-16T09:12:29.044Z,95.19
2023-05-16T09:14:55.957Z,95.37
2023-05-16T09:17:32.252Z,95.77
2023-05-16T09:20:15.256Z,96.50
2023-05-16T09:22:51.962Z,96.91
2023-05-16T09:25:29.177Z,96.84
2023-05-16T09:27:57.665Z,97.06
2023-05-16T09:30:27.955Z,96.50
2023-05-16T09:32:54.645Z,97.49
2023-05-16T09:35:35.037Z,97.84
2023-05-16T09:38:13.785Z,99.04
2023-05-16T09:40:40.742Z,98.94
2023-05-16T09:43:08.476Z,97.60
2023-05-16T09:45:35.675Z,98.88
2023-05-16T09:48:04.702Z,98.21
2023-05-16T09:50:32.735Z,98.12
2023-05-16T09:52:59.727Z,98.58
2023-05-16T09:55:26.548Z,100.00
2023-05-16T09:57:53.315Z,100.00
2023-05-16T10:00:20.106Z,100.00
2023-05-16T10:02:47.560Z,100.00
2023-05-16T10:05:14.949Z,100.00
2023-05-16T10:07:42.700Z,100.00
2023-05-16T10:10:09.742Z,100.00
2023-05-16T10:12:38.278Z,100.00
2023-05-16T10:15:05.946Z,100.00
2023-05-16T10:17:34.440Z,100.00
2023-05-16T10:20:02.118Z,100.00
2023-05-16T10:22:30.078Z,100.00
2023-05-16T10:25:19.887Z,100.00
2023-05-16T10:27:47.469Z,100.00
2023-05-16T10:30:14.554Z,100.00
2023-05-16T10:32:43.009Z,100.00
2023-05-16T10:35:09.970Z,100.00
2023-05-16T10:37:36.877Z,100.00
2023-05-16T10:40:05.972Z,100.00
2023-05-16T10:42:33.629Z,100.00
2023-05-16T10:45:15.708Z,100.00
2023-05-16T10:47:50.731Z,100.00
2023-05-16T10:50:30.651Z,100.00
2023-05-16T10:52:57.529Z,100.00
2023-05-16T10:55:24.133Z,100.00
2023-05-16T10:57:50.889Z,100.00
2023-05-16T11:00:23.490Z,100.00
2023-05-16T11:02:50.145Z,100.00
2023-05-16T11:05:19.143Z,100.00
2023-05-16T11:08:02.162Z,100.00
2023-05-16T11:10:28.770Z,100.00
2023-05-16T11:13:02.245Z,100.00
2023-05-16T11:15:31.493Z,100.00
2023-05-16T11:18:08.390Z,100.00
2023-05-16T11:20:36.306Z,100.00
2023-05-16T11:23:24.632Z,100.00
2023-05-16T11:25:58.476Z,100.00
2023-05-16T11:28:26.048Z,100.00
2023-05-16T11:30:56.172Z,100.00
2023-05-16T11:33:23.740Z,100.00
2023-05-16T11:36:19.892Z,100.00
2023-05-16T11:38:46.649Z,100.00
2023-05-16T11:41:15.520Z,100.00
2023-05-16T11:43:43.210Z,100.00
2023-05-16T11:46:13.945Z,100.00
2023-05-16T11:48:41.315Z,100.00
2023-05-16T11:51:09.078Z,100.00
2023-05-16T11:53:35.829Z,100.00
2023-05-16T11:56:03.436Z,100.00
2023-05-16T11:58:30.200Z,100.00
2023-05-16T12:00:57.144Z,100.00
2023-05-16T12:03:26.739Z,100.00
2023-05-16T12:05:55.393Z,100.00
2023-05-16T12:08:22.190Z,100.00
2023-05-16T12:10:50.418Z,100.00
2023-05-16T12:13:19.958Z,100.00
2023-05-16T12:15:47.538Z,100.00
2023-05-16T12:18:14.778Z,100.00
2023-05-16T12:20:41.742Z,100.00
2023-05-16T12:23:12.657Z,100.00
2023-05-16T12:25:46.160Z,100.00
2023-05-16T12:28:13.555Z,100.00
2023-05-16T12:30:41.596Z,100.00
2023-05-16T12:33:11.824Z,100.00
2023-05-16T12:35:39.736Z,100.00
2023-05-16T12:38:14.075Z,100.00
2023-05-16T12:40:41.787Z,100.00
2023-05-16T12:43:19.753Z,100.00
2023-05-16T12:45:53.185Z,100.00
2023-05-16T12:48:20.206Z,100.00
2023-05-16T12:50:47.111Z,100.00
2023-05-16T12:53:14.472Z,100.00
2023-05-16T12:55:41.603Z,100.00
2023-05-16T12:58:08.621Z,100.00
2023-05-16T13:00:36.556Z,100.00
2023-05-16T13:03:03.704Z,100.00
2023-05-16T13:05:30.503Z,100.00
2023-05-16T13:07:57.381Z,100.00
2023-05-16T13:10:26.072Z,100.00
2023-05-16T13:12:53.832Z,97.93
2023-05-16T13:15:20.574Z,96.25
2023-05-16T13:17:48.583Z,95.74
2023-05-16T13:20:15.599Z,94.38
2023-05-16T13:22:43.140Z,96.73
2023-05-16T13:25:10.708Z,94.29
2023-05-16T13:27:37.710Z,95.44
2023-05-16T13:30:04.746Z,93.96
2023-05-16T13:32:31.336Z,95.29
2023-05-16T13:34:57.988Z,97.46
2023-05-16T13:37:24.696Z,99.03
2023-05-16T13:39:51.304Z,96.77
2023-05-16T13:42:18.910Z,99.46
2023-05-16T13:44:45.612Z,100.00
2023-05-16T13:47:12.271Z,100.00
2023-05-16T13:49:39.048Z,100.00
2023-05-16T13:52:06.367Z,100.00
2023-05-16T13:54:33.622Z,100.00
2023-05-16T13:57:00.798Z,98.13
2023-05-16T13:59:39.560Z,96.61
2023-05-16T14:02:13.939Z,95.96
2023-05-16T14:04:41.090Z,96.31
2023-05-16T14:07:07.746Z,97.35
2023-05-16T14:09:35.304Z,97.17
2023-05-16T14:12:04.800Z,96.68
2023-05-16T14:14:31.991Z,96.42
2023-05-16T14:16:59.497Z,97.59
2023-05-16T14:19:26.185Z,98.63
2023-05-16T14:21:52.791Z,99.37
2023-05-16T14:24:19.327Z,99.76
2023-05-16T14:26:45.882Z,99.51
2023-05-16T14:29:13.335Z,100.00
2023-05-16T14:31:40.494Z,99.50
2023-05-16T14:34:07.081Z,98.58
2023-05-16T14:36:33.716Z,98.01
2023-05-16T14:39:00.551Z,98.03
2023-05-16T14:41:27.334Z,97.61
2023-05-16T14:43:53.883Z,97.08
2023-05-16T14:46:20.481Z,96.33
2023-05-16T14:48:47.147Z,95.98
2023-05-16T14:51:13.831Z,95.21
2023-05-16T14:53:40.695Z,95.03
2023-05-16T14:56:07.301Z,93.28
2023-05-16T14:58:33.898Z,92.40
2023-05-16T15:01:00.504Z,93.05
2023-05-16T15:03:27.258Z,92.71
2023-05-16T15:05:54.744Z,93.06
2023-05-16T15:08:22.306Z,92.56
2023-05-16T15:10:48.893Z,93.77
2023-05-16T15:13:15.601Z,93.56
2023-05-16T15:15:42.280Z,94.54
2023-05-16T15:18:10.651Z,95.56
2023-05-16T15:20:37.707Z,95.87
2023-05-16T15:23:04.281Z,95.89
2023-05-16T15:25:31.202Z,93.68
2023-05-16T15:27:58.043Z,94.84
2023-05-16T15:30:24.651Z,95.38
2023-05-16T15:32:51.568Z,95.82
2023-05-16T15:35:18.189Z,95.99
2023-05-16T15:37:44.847Z,93.46
2023-05-16T15:40:11.798Z,94.67
2023-05-16T15:42:38.377Z,96.39
2023-05-16T15:45:06.399Z,100.00
2023-05-16T15:47:33.117Z,100.00
2023-05-16T15:49:59.733Z,100.00
2023-05-16T15:52:26.509Z,100.00
2023-05-16T15:54:53.095Z,100.00
2023-05-16T15:57:19.777Z,100.00
2023-05-16T15:59:46.523Z,100.00
2023-05-16T16:02:13.158Z,100.00
2023-05-16T16:04:39.816Z,100.00
2023-05-16T16:07:06.436Z,100.00
2023-05-16T16:09:33.058Z,100.00
2023-05-16T16:11:59.641Z,100.00
2023-05-16T16:14:26.240Z,100.00
2023-05-16T16:16:52.766Z,100.00
2023-05-16T16:19:19.550Z,100.00
2023-05-16T16:21:46.411Z,100.00
2023-05-16T16:24:13.627Z,100.00
2023-05-16T16:26:40.936Z,100.00
2023-05-16T16:29:07.538Z,100.00
2023-05-16T16:31:34.215Z,100.00
2023-05-16T16:34:00.944Z,100.00
2023-05-16T16:36:27.667Z,100.00
2023-05-16T16:38:54.259Z,100.00
2023-05-16T16:41:20.915Z,100.00
2023-05-16T16:43:47.593Z,100.00
2023-05-16T16:46:14.224Z,100.00
2023-05-16T16:48:40.798Z,100.00
2023-05-16T16:51:07.488Z,100.00
2023-05-16T16:53:35.216Z,100.00
2023-05-16T16:56:01.893Z,100.00
2023-05-16T16:58:28.477Z,100.00
2023-05-16T17:00:55.095Z,100.00
2023-05-16T17:03:21.833Z,100.00
2023-05-16T17:05:48.576Z,100.00
2023-05-16T17:08:15.141Z,100.00
2023-05-16T17:10:41.803Z,100.00
2023-05-16T17:13:10.555Z,100.00
2023-05-16T17:15:37.854Z,100.00
2023-05-16T17:18:07.494Z,100.00
2023-05-16T17:20:34.876Z,100.00
2023-05-16T17:23:01.745Z,100.00
2023-05-16T17:25:29.237Z,100.00
2023-05-16T17:27:56.377Z,100.00
2023-05-16T17:30:23.483Z,100.00
2023-05-16T17:32:50.121Z,100.00
2023-05-16T17:35:16.768Z,100.00
2023-05-16T17:37:43.521Z,100.00
2023-05-16T17:40:12.818Z,100.00
2023-05-16T17:42:39.714Z,100.00
2023-05-16T17:45:07.143Z,100.00
2023-05-16T17:47:33.879Z,100.00
2023-05-16T17:50:00.458Z,100.00
2023-05-16T17:52:27.373Z,100.00
2023-05-16T17:54:53.921Z,100.00
2023-05-16T17:57:20.538Z,100.00
2023-05-16T17:59:47.061Z,100.00
2023-05-16T18:02:16.301Z,100.00
2023-05-16T18:04:43.137Z,100.00
2023-05-16T18:07:09.728Z,100.00
2023-05-16T18:09:36.295Z,100.00
2023-05-16T18:12:03.106Z,100.00
2023-05-16T18:14:29.645Z,100.00
2023-05-16T18:16:56.176Z,100.00
2023-05-16T18:19:22.828Z,100.00
2023-05-16T18:21:49.499Z,100.00
2023-05-16T18:24:16.484Z,100.00
2023-05-16T18:26:44.487Z,100.00
2023-05-16T18:29:11.297Z,100.00
2023-05-16T18:31:40.724Z,100.00
2023-05-16T18:34:07.312Z,100.00
2023-05-16T18:36:33.852Z,100.00
2023-05-16T18:39:00.432Z,100.00
2023-05-16T18:41:27.284Z,100.00
2023-05-16T18:43:53.844Z,100.00
2023-05-16T18:46:20.615Z,100.00
2023-05-16T18:48:47.290Z,100.00
2023-05-16T18:51:13.928Z,100.00
2023-05-16T18:53:40.537Z,100.00
2023-05-16T18:56:07.084Z,100.00
2023-05-16T18:58:33.665Z,100.00
2023-05-16T19:01:00.676Z,100.00
2023-05-16T19:03:27.334Z,100.00
2023-05-16T19:05:54.262Z,100.00
2023-05-16T19:08:20.960Z,100.00
2023-05-16T19:10:47.530Z,100.00
2023-05-16T19:13:14.138Z,100.00
2023-05-16T19:15:40.674Z,100.00
2023-05-16T19:18:07.300Z,100.00
2023-05-16T19:20:34.685Z,100.00
2023-05-16T19:23:01.769Z,100.00
2023-05-16T19:25:28.472Z,100.00
2023-05-16T19:27:55.024Z,100.00
2023-05-16T19:30:21.721Z,100.00
2023-05-16T19:32:48.239Z,100.00
2023-05-16T19:35:16.049Z,100.00
2023-05-16T19:37:42.579Z,100.00
2023-05-16T19:40:09.326Z,100.00
2023-05-16T19:42:36.007Z,100.00
2023-05-16T19:45:02.862Z,100.00
2023-05-16T19:47:29.531Z,100.00
2023-05-16T19:49:56.114Z,100.00
2023-05-16T19:52:22.726Z,100.00
2023-05-16T19:54:49.364Z,100.00
2023-05-16T19:57:15.874Z,100.00
2023-05-16T19:59:42.472Z,100.00
2023-05-16T20:02:09.078Z,100.00
2023-05-16T20:04:35.701Z,100.00
2023-05-16T20:07:02.267Z,100.00
2023-05-16T20:09:28.974Z,100.00
2023-05-16T20:11:57.421Z,100.00
2023-05-16T20:14:24.021Z,100.00
2023-05-16T20:16:51.438Z,100.00
2023-05-16T20:19:19.196Z,100.00
2023-05-16T20:21:46.092Z,100.00
2023-05-16T20:24:13.421Z,100.00
2023-05-16T20:26:40.077Z,100.00
2023-05-16T20:29:06.592Z,100.00
2023-05-16T20:31:33.191Z,100.00
2023-05-16T20:33:59.757Z,100.00
2023-05-16T20:36:26.531Z,100.00
2023-05-16T20:38:53.065Z,100.00
2023-05-16T20:41:19.740Z,100.00
2023-05-16T20:43:46.866Z,100.00
2023-05-16T20:46:13.392Z,100.00
2023-05-16T20:48:40.091Z,100.00
2023-05-16T20:51:06.773Z,100.00
2023-05-16T20:53:33.447Z,100.00
2023-05-16T20:55:59.958Z,100.00
2023-05-16T20:58:26.512Z,100.00
2023-05-16T21:00:53.095Z,100.00
2023-05-16T21:03:19.734Z,100.00
2023-05-16T21:05:46.370Z,100.00
2023-05-16T21:08:12.959Z,100.00
2023-05-16T21:10:39.519Z,100.00
2023-05-16T21:13:06.246Z,100.00
2023-05-16T21:15:32.784Z,100.00
2023-05-16T21:17:59.562Z,100.00
2023-05-16T21:20:28.501Z,100.00
2023-05-16T21:22:55.117Z,100.00
2023-05-16T21:25:21.724Z,100.00
2023-05-16T21:27:48.273Z,100.00
2023-05-16T21:30:14.947Z,100.00
2023-05-16T21:32:41.569Z,100.00
2023-05-16T21:35:08.974Z,100.00
2023-05-16T21:37:35.557Z,100.00
2023-05-16T21:40:02.314Z,100.00
2023-05-16T21:42:28.889Z,100.00
2023-05-16T21:44:55.567Z,100.00
2023-05-16T21:47:22.079Z,100.00
2023-05-16T21:49:48.614Z,100.00
2023-05-16T21:52:15.214Z,100.00
2023-05-16T21:54:41.731Z,100.00
2023-05-16T21:57:08.362Z,100.00
2023-05-16T21:59:34.931Z,100.00
2023-05-16T22:02:01.549Z,100.00
2023-05-16T22:04:28.307Z,100.00
2023-05-16T22:06:54.825Z,100.00
2023-05-16T22:09:21.400Z,100.00
2023-05-16T22:11:47.940Z,100.00
2023-05-16T22:14:14.583Z,100.00
2023-05-16T22:16:41.203Z,100.00
2023-05-16T22:19:09.011Z,100.00
2023-05-16T22:21:36.083Z,100.00
2023-05-16T22:24:03.124Z,100.00
2023-05-16T22:26:29.748Z,100.00
2023-05-16T22:28:56.310Z,100.00
2023-05-16T22:31:22.837Z,100.00
2023-05-16T22:33:49.446Z,100.00
2023-05-16T22:36:16.001Z,100.00
2023-05-16T22:38:42.682Z,100.00
2023-05-16T22:41:09.379Z,100.00
2023-05-16T22:43:35.924Z,100.00
2023-05-16T22:46:03.261Z,100.00
2023-05-16T22:48:30.160Z,100.00
2023-05-16T22:50:57.333Z,100.00
2023-05-16T22:53:24.007Z,100.00
2023-05-16T22:55:50.843Z,100.00
2023-05-16T22:58:17.897Z,100.00
2023-05-16T23:00:44.700Z,100.00
2023-05-16T23:03:11.459Z,100.00
2023-05-16T23:05:38.161Z,100.00
2023-05-16T23:08:04.894Z,100.00
2023-05-16T23:10:32.025Z,100.00
2023-05-16T23:12:58.739Z,100.00
2023-05-16T23:15:25.583Z,100.00
2023-05-16T23:17:52.342Z,100.00
2023-05-16T23:20:18.979Z,100.00
2023-05-16T23:22:45.659Z,100.00
2023-05-16T23:25:12.158Z,100.00
2023-05-16T23:27:38.794Z,100.00
2023-05-16T23:30:07.801Z,100.00
2023-05-16T23:32:34.475Z,100.00
2023-05-16T23:35:01.165Z,100.00
2023-05-16T23:37:27.791Z,100.00
2023-05-16T23:39:54.328Z,100.00
2023-05-16T23:42:20.867Z,100.00
2023-05-16T23:44:47.489Z,100.00
2023-05-16T23:47:14.120Z,100.00
2023-05-16T23:49:40.818Z,100.00
2023-05-16T23:52:07.434Z,100.00
2023-05-16T23:54:34.224Z,100.00
2023-05-16T23:57:01.271Z,100.00
2023-05-16T23:59:28.003Z,100.00
